createdAt,value
2019-05-25T00:04:54.660Z,16.01
2019-05-25T00:10:16.654Z,16.01
2019-05-25T00:15:38.064Z,15.96
2019-05-25T00:20:59.798Z,15.98
2019-05-25T00:26:21.527Z,15.93
2019-05-25T00:31:43.118Z,15.74
2019-05-25T00:37:04.751Z,15.60
2019-05-25T00:42:26.707Z,15.75
2019-05-25T00:47:48.649Z,15.83
2019-05-25T00:53:10.407Z,15.95
2019-05-25T00:58:32.453Z,15.96
2019-05-25T01:03:54.256Z,16.02
2019-05-25T01:09:15.577Z,15.99
2019-05-25T01:14:37.312Z,16.03
2019-05-25T01:19:58.763Z,16.11
2019-05-25T01:25:20.869Z,16.06
2019-05-25T01:30:42.737Z,16.02
2019-05-25T01:36:04.105Z,15.98
2019-05-25T01:41:25.793Z,15.94
2019-05-25T01:46:47.634Z,15.83
2019-05-25T01:52:09.148Z,15.76
2019-05-25T01:57:31.034Z,15.70
2019-05-25T02:02:52.551Z,15.78
2019-05-25T02:08:14.133Z,15.82
2019-05-25T02:13:35.544Z,15.79
2019-05-25T02:18:57.080Z,15.86
2019-05-25T02:24:18.661Z,15.85
2019-05-25T02:29:40.297Z,15.81
2019-05-25T02:35:02.301Z,15.91
2019-05-25T02:40:24.673Z,15.84
2019-05-25T02:45:46.506Z,15.82
2019-05-25T02:51:09.997Z,15.80
2019-05-25T02:56:31.898Z,15.61
2019-05-25T03:01:53.700Z,15.55
2019-05-25T03:07:15.465Z,15.51
2019-05-25T03:12:38.115Z,15.42
2019-05-25T03:17:59.846Z,15.44
2019-05-25T03:23:21.647Z,15.39
2019-05-25T03:28:43.510Z,15.48
2019-05-25T03:34:04.980Z,15.65
2019-05-25T03:39:26.741Z,15.67
2019-05-25T03:44:48.794Z,15.75
2019-05-25T03:50:10.688Z,15.89
2019-05-25T03:55:32.270Z,15.95
2019-05-25T04:00:53.806Z,16.04
2019-05-25T04:06:15.342Z,16.15
2019-05-25T04:11:36.988Z,16.23
2019-05-25T04:16:58.729Z,16.32
2019-05-25T04:22:20.257Z,16.39
2019-05-25T04:27:41.894Z,16.50
2019-05-25T04:33:03.548Z,16.56
2019-05-25T04:38:24.989Z,16.58
2019-05-25T04:43:46.833Z,16.66
2019-05-25T04:49:08.785Z,16.73
2019-05-25T04:54:30.339Z,16.83
2019-05-25T04:59:52.023Z,16.86
2019-05-25T05:05:14.302Z,17.06
2019-05-25T05:10:35.964Z,17.06
2019-05-25T05:15:57.511Z,17.11
2019-05-25T05:21:19.055Z,17.17
2019-05-25T05:26:54.764Z,17.19
2019-05-25T05:32:04.695Z,17.21
2019-05-25T05:37:26.755Z,17.35
2019-05-25T05:42:51.165Z,17.36
2019-05-25T05:48:13.501Z,17.36
2019-05-25T05:53:38.098Z,17.36
2019-05-25T05:58:59.712Z,17.39
2019-05-25T06:04:22.020Z,17.59
2019-05-25T06:09:44.076Z,17.59
2019-05-25T06:15:05.819Z,17.61
2019-05-25T06:20:28.018Z,17.61
2019-05-25T06:25:57.347Z,17.56
2019-05-25T06:31:19.395Z,17.67
2019-05-25T06:36:41.290Z,17.85
2019-05-25T06:42:03.021Z,17.85
2019-05-25T06:47:24.839Z,18.06
2019-05-25T06:52:46.802Z,18.11
2019-05-25T06:58:08.482Z,18.40
2019-05-25T07:03:30.439Z,18.69
2019-05-25T07:08:52.085Z,18.75
2019-05-25T07:14:14.004Z,18.93
2019-05-25T07:19:36.410Z,19.11
2019-05-25T07:24:58.224Z,19.18
2019-05-25T07:30:20.106Z,19.42
2019-05-25T07:35:41.899Z,19.36
2019-05-25T07:41:03.460Z,19.47
2019-05-25T07:46:25.400Z,19.43
2019-05-25T07:51:47.220Z,19.58
2019-05-25T07:57:09.387Z,19.78
2019-05-25T08:02:31.382Z,19.94
2019-05-25T08:07:53.214Z,20.15
2019-05-25T08:13:15.446Z,20.51
2019-05-25T08:18:36.986Z,20.80
2019-05-25T08:23:58.506Z,21.16
2019-05-25T08:29:19.725Z,21.31
2019-05-25T08:34:41.477Z,21.59
2019-05-25T08:40:03.318Z,21.53
2019-05-25T08:45:30.561Z,21.66
2019-05-25T08:50:52.847Z,21.66
2019-05-25T08:56:14.857Z,21.45
2019-05-25T09:01:36.235Z,21.77
2019-05-25T09:06:58.122Z,21.65
2019-05-25T09:12:19.775Z,21.24
2019-05-25T09:17:45.547Z,21.39
2019-05-25T09:23:06.880Z,21.34
2019-05-25T09:28:28.738Z,21.26
2019-05-25T09:33:50.406Z,21.25
2019-05-25T09:39:12.412Z,21.18
2019-05-25T09:44:34.310Z,21.10
2019-05-25T09:49:56.203Z,21.30
2019-05-25T09:55:17.937Z,21.58
2019-05-25T10:00:40.242Z,21.73
2019-05-25T10:06:10.800Z,21.34
2019-05-25T10:11:26.505Z,21.27
2019-05-25T10:16:48.147Z,21.69
2019-05-25T10:22:09.705Z,22.30
2019-05-25T10:27:34.089Z,22.57
2019-05-25T10:32:54.979Z,22.54
2019-05-25T10:38:16.338Z,22.59
2019-05-25T10:43:38.129Z,22.57
2019-05-25T10:49:00.073Z,22.29
2019-05-25T10:54:21.665Z,22.33
2019-05-25T10:59:52.481Z,22.58
2019-05-25T11:05:07.937Z,22.62
2019-05-25T11:10:29.940Z,22.88
2019-05-25T11:15:51.626Z,22.74
2019-05-25T11:21:13.335Z,23.16
2019-05-25T11:26:34.858Z,23.46
2019-05-25T11:32:01.163Z,23.50
2019-05-25T11:37:20.428Z,23.49
2019-05-25T11:42:42.358Z,23.58
2019-05-25T11:48:04.486Z,23.71
2019-05-25T11:53:28.383Z,23.56
2019-05-25T11:58:50.540Z,23.19
2019-05-25T12:04:12.405Z,23.38
2019-05-25T12:09:34.421Z,23.66
2019-05-25T12:14:56.296Z,24.13
2019-05-25T12:20:18.263Z,24.08
2019-05-25T12:25:41.645Z,23.46
2019-05-25T12:31:03.470Z,23.19
2019-05-25T12:36:25.252Z,22.83
2019-05-25T12:41:47.261Z,22.00
2019-05-25T12:47:09.239Z,21.74
2019-05-25T12:52:31.065Z,22.69
2019-05-25T12:57:52.919Z,23.95
2019-05-25T13:03:15.109Z,24.12
2019-05-25T13:08:37.096Z,25.37
2019-05-25T13:14:06.326Z,24.66
2019-05-25T13:19:22.112Z,25.05
2019-05-25T13:24:44.106Z,25.73
2019-05-25T13:30:06.142Z,26.23
2019-05-25T13:35:27.634Z,26.54
2019-05-25T13:40:49.132Z,26.70
2019-05-25T13:46:11.055Z,25.70
2019-05-25T13:51:32.907Z,26.76
2019-05-25T13:56:54.789Z,27.51
2019-05-25T14:02:16.270Z,27.06
2019-05-25T14:07:37.959Z,25.46
2019-05-25T14:12:59.233Z,24.81
2019-05-25T14:18:22.160Z,24.40
2019-05-25T14:23:44.300Z,24.84
2019-05-25T14:29:06.858Z,25.03
2019-05-25T14:34:29.434Z,26.32
2019-05-25T14:39:51.695Z,26.19
2019-05-25T14:45:13.976Z,24.65
2019-05-25T14:50:35.599Z,23.60
2019-05-25T14:55:57.428Z,20.49
2019-05-25T15:01:19.189Z,18.95
2019-05-25T15:06:41.014Z,19.94
2019-05-25T15:12:04.335Z,21.26
2019-05-25T15:17:26.638Z,20.83
2019-05-25T15:22:48.718Z,20.68
2019-05-25T15:28:10.286Z,21.91
2019-05-25T15:33:32.197Z,21.78
2019-05-25T15:38:53.987Z,21.96
2019-05-25T15:44:16.238Z,22.80
2019-05-25T15:49:37.867Z,23.44
2019-05-25T15:54:59.439Z,24.02
2019-05-25T16:00:24.890Z,23.89
2019-05-25T16:05:47.727Z,23.14
2019-05-25T16:11:09.351Z,22.28
2019-05-25T16:16:31.058Z,21.80
2019-05-25T16:21:53.127Z,21.60
2019-05-25T16:27:15.292Z,20.95
2019-05-25T16:33:07.055Z,21.62
2019-05-25T16:38:00.771Z,20.66
2019-05-25T16:43:22.584Z,20.05
2019-05-25T16:48:44.836Z,19.50
2019-05-25T16:54:06.949Z,18.80
2019-05-25T16:59:29.184Z,18.69
2019-05-25T17:04:51.090Z,18.33
2019-05-25T17:10:12.840Z,18.04
2019-05-25T17:15:34.690Z,18.09
2019-05-25T17:20:56.873Z,17.77
2019-05-25T17:26:18.620Z,17.77
2019-05-25T17:31:40.840Z,17.81
2019-05-25T17:37:03.206Z,17.59
2019-05-25T17:42:24.841Z,17.59
2019-05-25T17:47:46.588Z,17.46
2019-05-25T17:53:08.213Z,17.16
2019-05-25T17:58:30.071Z,17.10
2019-05-25T18:04:05.528Z,16.89
2019-05-25T18:09:16.008Z,16.59
2019-05-25T18:14:38.101Z,16.46
2019-05-25T18:20:00.083Z,16.33
2019-05-25T18:25:21.760Z,16.12
2019-05-25T18:30:43.789Z,16.01
2019-05-25T18:36:05.654Z,15.81
2019-05-25T18:41:27.711Z,15.85
2019-05-25T18:46:49.617Z,15.82
2019-05-25T18:52:11.374Z,15.71
2019-05-25T18:57:34.309Z,15.80
2019-05-25T19:02:56.100Z,15.65
2019-05-25T19:08:18.065Z,15.43
2019-05-25T19:13:39.726Z,15.35
2019-05-25T19:19:01.121Z,15.28
2019-05-25T19:24:22.998Z,15.39
2019-05-25T19:29:44.605Z,15.50
2019-05-25T19:35:07.065Z,15.27
2019-05-25T19:40:29.165Z,15.17
2019-05-25T19:45:50.931Z,15.15
2019-05-25T19:51:12.742Z,15.19
2019-05-25T19:56:35.221Z,15.33
2019-05-25T20:01:57.095Z,15.22
2019-05-25T20:07:18.991Z,15.16
2019-05-25T20:12:40.594Z,15.07
2019-05-25T20:18:02.194Z,15.06
2019-05-25T20:23:23.918Z,15.01
2019-05-25T20:28:45.772Z,15.03
2019-05-25T20:34:07.777Z,15.05
2019-05-25T20:39:29.538Z,15.03
2019-05-25T20:44:51.116Z,14.82
2019-05-25T20:50:12.765Z,14.74
2019-05-25T20:55:34.298Z,14.65
2019-05-25T21:00:55.665Z,14.73
2019-05-25T21:06:17.730Z,14.79
2019-05-25T21:11:39.668Z,14.86
2019-05-25T21:17:01.319Z,14.85
2019-05-25T21:22:22.707Z,14.66
2019-05-25T21:27:44.706Z,14.58
2019-05-25T21:33:06.088Z,14.53
2019-05-25T21:38:27.836Z,14.57
2019-05-25T21:43:49.681Z,14.66
2019-05-25T21:49:11.490Z,14.76
2019-05-25T21:54:33.200Z,14.72
2019-05-25T21:59:54.928Z,14.52
2019-05-25T22:05:16.351Z,14.48
2019-05-25T22:10:38.261Z,14.37
2019-05-25T22:16:00.138Z,14.34
2019-05-25T22:21:21.596Z,14.38
2019-05-25T22:26:43.355Z,14.28
2019-05-25T22:32:04.854Z,14.15
2019-05-25T22:37:26.711Z,14.13
2019-05-25T22:42:48.307Z,14.06
2019-05-25T22:48:10.146Z,14.08
2019-05-25T22:53:32.234Z,14.01
2019-05-25T22:58:54.318Z,14.05
2019-05-25T23:04:16.335Z,14.11
2019-05-25T23:09:38.539Z,14.00
2019-05-25T23:15:00.681Z,13.31
2019-05-25T23:20:21.961Z,13.84
2019-05-25T23:25:43.552Z,13.84
2019-05-25T23:31:05.085Z,13.65
2019-05-25T23:36:26.900Z,13.69
2019-05-25T23:41:48.434Z,13.61
2019-05-25T23:47:09.801Z,13.60
2019-05-25T23:52:31.755Z,13.60
2019-05-25T23:57:53.311Z,13.62
